Aérodrome :
LOGIN :

S'inscrire | Disclaimer

   EN    FR    IT 

 










Légende :    VFR   VFR Marginal   IFR   IFR Intensif   IFR Très Intensif
Visi : 
Plafond : 
>= 8 km
>= 3000ft
5 à 8 km
1000 à 3000 ft
1500m à 5 km
500 à 1000 ft
800 à 1500m
200 à 500 ft
< 800m
< 200 ft
Symboles :   Orages  Brouillard  Fortes neiges  Fortes précipitations  Vent > 20 kt
SIGMETs :   Divers  Orages  Givrage  Turbulence  Onde Orograph.  Cendres Volcan.






- Altitude de l'aérodrome : 1339 ft


ETHN - Niederstetten

DERNIER METAR :
  • 171820Z 25014KT 9999 VCSH SCT016CB BKN040 10/08 Q1009 BLU BLU+ TEMPO GRN

METARs EXPIRÉS :
  • 171720Z 26018KT 9999 FEW020 FEW025CB SCT060 11/07 Q1008 BLU+BLU TEMPO GRN
  • 171620Z 26019G31KT 9999 FEW020 BKN090 11/06 Q1008 BLU BLU TEMPO GRN

TAF TAF ETHN
Valide du 17 à 17h jusqu'au 18 à 02h UTC


171628Z 1717/1802 26015G25KT 9999 NSW FEW020 BKN090
TEMPO 1717/1720 26020G30KT 4000 SHRA BKN012TCU
PROB30 1717/1720 VRB20G35KT 1500 TSRA BKN005CB
TEMPO 1720/1802 26015G25KT 8000 -SHRA BKN012



MET'MAP, la Météo Aéronautique d'un coup d'oeil ! - Copyright ORBIFLY Décembre 2007 - Disclaimer

ORBIFLY MET'MAP TEAM :

Programmation & Développement : Alexandra Zaïnal
Sur une idée originale de : Baudouin d'Aumeries
Assistance à la programmation : Marc-Olivier Méhu
Soutien technique & logistique : Manuel Goepfert

Contact : metmap@orbifly.com




SOURCES & CREDITS :

   NOAA